Monterey (MRY/KMRY)

Map

Destinations

Information

Location
Monterey, CA
Local Time
19:25 / 7:25 pm
GMT Time
02:25 / 2:25 am
Gates
Unassigned
No FAA reported delays
METAR KMRY 280154Z 27016G24KT 10SM FEW020 13/08 A3021 RMK AO2 PK WND 27026/0058 SLP241 T01280083
TAF KMRY 272330Z 2800/2824 28018G28KT P6SM FEW040 SCT250 FM280400 28014KT P6SM SCT030 FM281000 26008KT P6SM SKC FM281900 28014KT P6SM SKC
  • No charts available